createdAt,value
2023-05-02T00:05:51.070Z,9.9
2023-05-02T00:11:51.094Z,10
2023-05-02T00:17:51.198Z,10.1
2023-05-02T00:23:51.084Z,10.1
2023-05-02T00:29:51.075Z,10.3
2023-05-02T00:35:51.067Z,10.3
2023-05-02T00:41:51.063Z,10.3
2023-05-02T00:47:51.087Z,10.2
2023-05-02T00:53:51.060Z,10.1
2023-05-02T00:59:51.132Z,9.9
2023-05-02T01:05:51.077Z,9.9
2023-05-02T01:11:51.085Z,10
2023-05-02T01:17:51.113Z,9.9
2023-05-02T01:23:51.087Z,9.9
2023-05-02T01:29:51.065Z,9.8
2023-05-02T01:35:51.078Z,9.7
2023-05-02T01:41:51.092Z,9.6
2023-05-02T01:47:51.140Z,9.5
2023-05-02T01:53:51.097Z,9.5
2023-05-02T01:59:51.074Z,9.4
2023-05-02T02:05:51.096Z,9.4
2023-05-02T02:11:51.106Z,9.3
2023-05-02T02:17:51.078Z,9.2
2023-05-02T02:23:51.073Z,9.2
2023-05-02T02:29:51.082Z,9.2
2023-05-02T02:35:51.078Z,9.3
2023-05-02T02:41:51.066Z,9.3
2023-05-02T02:47:51.145Z,9.3
2023-05-02T02:53:51.103Z,9.4
2023-05-02T02:59:51.092Z,9.4
2023-05-02T03:05:51.073Z,9.4
2023-05-02T03:11:51.090Z,9.3
2023-05-02T03:17:51.145Z,9.3
2023-05-02T03:23:51.109Z,9.3
2023-05-02T03:29:51.059Z,9.3
2023-05-02T03:35:51.087Z,9.3
2023-05-02T03:41:51.093Z,9.2
2023-05-02T03:47:51.083Z,9.3
2023-05-02T03:53:51.073Z,9.3
2023-05-02T03:59:51.070Z,9.3
2023-05-02T04:05:51.064Z,9.3
2023-05-02T04:11:51.082Z,9.3
2023-05-02T04:17:51.144Z,9.3
2023-05-02T04:24:01.423Z,9.4
2023-05-02T04:29:51.068Z,9.5
2023-05-02T04:35:51.061Z,9.4
2023-05-02T04:41:51.079Z,9.5
2023-05-02T04:47:51.142Z,9.5
2023-05-02T04:53:51.112Z,9.5
2023-05-02T04:59:51.065Z,9.5
2023-05-02T05:11:51.110Z,9.5
2023-05-02T05:17:51.109Z,9.5
2023-05-02T05:23:51.080Z,9.6
2023-05-02T05:29:51.077Z,9.6
2023-05-02T05:35:51.075Z,9.6
2023-05-02T05:41:51.053Z,9.7
2023-05-02T05:47:51.149Z,9.8
2023-05-02T05:59:51.108Z,9.8
2023-05-02T06:05:51.078Z,9.8
2023-05-02T06:11:51.070Z,9.8
2023-05-02T06:17:51.136Z,9.9
2023-05-02T06:23:51.079Z,9.9
2023-05-02T06:29:51.132Z,9.9
2023-05-02T06:35:51.142Z,9.6
2023-05-02T06:41:51.094Z,9.8
2023-05-02T06:47:51.082Z,10.1
2023-05-02T06:53:51.073Z,10.3
2023-05-02T06:59:51.077Z,10.4
2023-05-02T07:05:56.903Z,10.3
2023-05-02T07:11:51.073Z,10.2
2023-05-02T07:17:51.154Z,10.2
2023-05-02T07:23:51.218Z,10.3
2023-05-02T07:30:02.187Z,10.4
2023-05-02T07:35:51.078Z,10.5
2023-05-02T07:41:51.054Z,10.3
2023-05-02T07:47:51.130Z,10.2
2023-05-02T07:53:51.079Z,10
2023-05-02T07:59:51.090Z,9.9
2023-05-02T08:05:55.756Z,10
2023-05-02T08:11:51.081Z,10.2
2023-05-02T08:17:51.107Z,10.8
2023-05-02T08:23:51.109Z,10.5
2023-05-02T08:29:51.108Z,10.4
2023-05-02T08:35:51.095Z,10.5
2023-05-02T08:41:51.088Z,10.9
2023-05-02T08:47:51.133Z,11.1
2023-05-02T08:53:51.151Z,10.9
2023-05-02T08:59:51.068Z,10.9
2023-05-02T09:05:51.085Z,10.4
2023-05-02T09:11:51.138Z,10.5
2023-05-02T09:17:51.118Z,10.9
2023-05-02T09:23:51.090Z,10.9
2023-05-02T09:29:51.177Z,10.8
2023-05-02T09:35:51.068Z,10.9
2023-05-02T09:41:51.090Z,11.1
2023-05-02T09:47:51.101Z,10.7
2023-05-02T09:53:51.074Z,10.7
2023-05-02T09:59:51.075Z,11
2023-05-02T10:05:51.102Z,11
2023-05-02T10:11:51.086Z,11
2023-05-02T10:17:51.111Z,10.7
2023-05-02T10:23:51.063Z,10.3
2023-05-02T10:29:51.088Z,10.3
2023-05-02T10:35:51.080Z,10.3
2023-05-02T10:41:51.103Z,10.4
2023-05-02T10:47:51.079Z,10.5
2023-05-02T10:53:51.079Z,10.6
2023-05-02T10:59:51.065Z,10.6
2023-05-02T11:05:51.088Z,11
2023-05-02T11:11:51.079Z,11.1
2023-05-02T11:17:51.080Z,11.2
2023-05-02T11:23:51.089Z,10.9
2023-05-02T11:29:51.145Z,11
2023-05-02T11:35:51.080Z,11.3
2023-05-02T11:41:51.080Z,10.1
2023-05-02T11:47:51.132Z,9.9
2023-05-02T11:53:51.071Z,10.3
2023-05-02T11:59:51.090Z,10.4
2023-05-02T12:05:51.158Z,10.8
2023-05-02T12:11:51.096Z,11.1
2023-05-02T12:17:51.140Z,10.3
2023-05-02T12:23:51.090Z,11.1
2023-05-02T12:29:51.075Z,10.9
2023-05-02T12:41:51.079Z,10.8
2023-05-02T12:47:51.147Z,10.7
2023-05-02T12:53:51.071Z,10.1
2023-05-02T12:59:51.090Z,9.9
2023-05-02T13:05:51.095Z,9.9
2023-05-02T13:11:51.079Z,10
2023-05-02T13:17:51.239Z,9.6
2023-05-02T13:23:51.084Z,9.4
2023-05-02T13:29:51.071Z,9.6
2023-05-02T13:35:51.078Z,9.6
2023-05-02T13:41:51.076Z,9.5
2023-05-02T13:47:51.182Z,9.5
2023-05-02T13:53:51.092Z,9.5
2023-05-02T13:59:51.087Z,9.5
2023-05-02T14:05:51.075Z,8.9
2023-05-02T14:11:51.110Z,8.3
2023-05-02T14:17:51.180Z,8.1
2023-05-02T14:23:51.089Z,8.6
2023-05-02T14:29:51.065Z,8.6
2023-05-02T14:41:51.096Z,8.1
2023-05-02T14:47:51.485Z,8
2023-05-02T14:53:51.083Z,7.9
2023-05-02T14:59:51.080Z,8.2
2023-05-02T15:05:51.145Z,7.8
2023-05-02T15:11:51.109Z,9.3
2023-05-02T15:17:51.107Z,8.1
2023-05-02T15:23:51.097Z,8
2023-05-02T15:29:51.090Z,7.4
2023-05-02T15:35:51.081Z,7.6
2023-05-02T15:41:51.100Z,7.4
2023-05-02T15:47:51.102Z,7.5
2023-05-02T15:53:51.087Z,7.8
2023-05-02T15:59:51.077Z,7.5
2023-05-02T16:05:51.084Z,7.3
2023-05-02T16:11:51.082Z,7.5
2023-05-02T16:17:51.120Z,7.2
2023-05-02T16:23:51.098Z,7.4
2023-05-02T16:29:51.101Z,6.9
2023-05-02T16:35:51.073Z,7
2023-05-02T16:41:51.086Z,7
2023-05-02T16:47:51.134Z,6.8
2023-05-02T16:53:51.088Z,6.6
2023-05-02T16:59:51.096Z,7
2023-05-02T17:05:51.096Z,6.9
2023-05-02T17:11:51.088Z,7
2023-05-02T17:17:51.145Z,7
2023-05-02T17:23:51.081Z,6.9
2023-05-02T17:29:51.090Z,6.8
2023-05-02T17:35:51.069Z,6.8
2023-05-02T17:41:51.089Z,6.5
2023-05-02T17:47:51.166Z,6.4
2023-05-02T17:53:51.094Z,6.4
2023-05-02T17:59:51.089Z,6.3
2023-05-02T18:05:51.091Z,6.3
2023-05-02T18:11:51.092Z,6.5
2023-05-02T18:18:01.456Z,6.5
2023-05-02T18:23:51.078Z,6.4
2023-05-02T18:29:51.365Z,6.3
2023-05-02T18:35:51.096Z,6.4
2023-05-02T18:41:51.092Z,6.3
2023-05-02T18:47:51.283Z,6.2
2023-05-02T18:53:51.088Z,6.3
2023-05-02T18:59:51.112Z,6.2
2023-05-02T19:05:51.086Z,6.1
2023-05-02T19:11:51.080Z,6
2023-05-02T19:17:51.099Z,6
2023-05-02T19:23:51.086Z,6.1
2023-05-02T19:29:51.086Z,6.1
2023-05-02T19:35:52.591Z,6.1
2023-05-02T19:41:51.078Z,6.2
2023-05-02T19:47:51.102Z,6.4
2023-05-02T19:53:51.091Z,6.4
2023-05-02T19:59:51.076Z,6.4
2023-05-02T20:05:51.088Z,6.4
2023-05-02T20:11:51.104Z,6.5
2023-05-02T20:17:51.120Z,6.5
2023-05-02T20:23:51.229Z,6.4
2023-05-02T20:29:51.135Z,6.4
2023-05-02T20:35:51.069Z,6.5
2023-05-02T20:41:51.078Z,6.5
2023-05-02T20:47:51.103Z,6.5
2023-05-02T20:53:51.069Z,6.6
2023-05-02T20:59:51.085Z,6.6
2023-05-02T21:05:51.099Z,6.6
2023-05-02T21:11:51.087Z,6.6
2023-05-02T21:17:51.110Z,6.7
2023-05-02T21:23:51.084Z,6.8
2023-05-02T21:29:51.065Z,6.7
2023-05-02T21:35:51.079Z,6.7
2023-05-02T21:41:51.096Z,6.7
2023-05-02T21:47:51.138Z,6.7
2023-05-02T21:53:51.070Z,6.8
2023-05-02T21:59:51.060Z,6.9
2023-05-02T22:05:51.069Z,6.9
2023-05-02T22:11:51.099Z,7
2023-05-02T22:17:51.087Z,7
2023-05-02T22:23:51.062Z,7.1
2023-05-02T22:29:51.075Z,7.1
2023-05-02T22:41:51.077Z,7
2023-05-02T22:47:51.137Z,7
2023-05-02T22:53:51.073Z,7
2023-05-02T22:59:51.070Z,7
2023-05-02T23:05:51.076Z,7
2023-05-02T23:11:51.080Z,6.9
2023-05-02T23:17:51.112Z,6.9
2023-05-02T23:23:51.155Z,6.9
2023-05-02T23:29:51.061Z,6.8
2023-05-02T23:35:51.072Z,6.8
2023-05-02T23:41:51.061Z,6.8
2023-05-02T23:47:51.129Z,6.8
2023-05-02T23:53:51.084Z,6.9
2023-05-02T23:59:51.049Z,6.8
